WMKJ METAR and TAF | Updated Today

WMKJ METAR

Senai International Airport

Observation time: 42 min. ago

WMKJ 291200Z 00000KT 9999 FEW017CB 30/23 Q1007

Need help? Read our tutorial on how to read METARs or read the parsed version below.

Senai International Airport (WMKJ) METAR

  • Weather conditions on Sun, 29 May 2022 12:00:00 +0000 (42 min. ago):
  • Present conditions: Dry
  • Clouds: A few at 518 meters, cumulonimbus
  • Visibility: Greater than 10 km
  • Wind: Calm
  • Temperature: 30 celsius
  • Dew point: 23 celsius
  • Pressure: 1007 millibars
  • Remarks: None


Useful to know...

WMKJ TAF

Senai International Airport

TAF WMKJ 291100Z 2912/3012 27005KT 9999 FEW018
Observation time: 1:42 hr. ago
Need help? Read our tutorial on how to read TAFs or read the parsed version below.

Parsed version of TAF for Senai International Airport (WMKJ)

  • From 29 May at 12:00 UTC, to day 30 of the month at 12:00 UTC
  • Clouds: A few at 549 meters
  • Visibility: Greater than 10 km
  • Wind: 270 degrees at 5